Time;durP1;ratioP1;P1;durP2;ratioP2;P2;SDS_P1;SDS_P2;PMS_P1;PMS_P2;Temp;Humidity;BMP_temperature;BMP_pressure;BME280_temperature;BME280_humidity;BME280_pressure;Samples;Min_cycle;Max_cycle;Signal;HPM_P1;HPM_P2
2022/02/05 00:00:12;;;;;;;;;;;22.30;41.40;;;;;;666988;29;1541;-83
2022/02/05 00:00:30;;;;;;;;;;;22.30;41.40;;;;;;666977;29;1202;-82
2022/02/05 00:00:50;;;;;;;;;;;22.30;41.50;;;;;;666498;29;1514;-83
2022/02/05 00:01:36;;;;;;;;;;;22.20;41.30;;;;;;664044;29;1412;-82
2022/02/05 00:02:04;;;;;;;;;;;22.20;41.40;;;;;;664160;29;1332;-83
2022/02/05 00:02:29;;;;;;;;;;;22.20;41.40;;;;;;664191;29;1341;-82
2022/02/05 00:02:56;;;;;;;;;;;22.20;41.80;;;;;;666773;29;1229;-82
2022/02/05 00:03:37;;;;;;;;;;;22.20;41.50;;;;;;669120;29;1528;-82
2022/02/05 00:04:03;;;;;;;;;;;22.20;41.50;;;;;;669315;29;1458;-82
2022/02/05 00:04:23;;;;;;;;;;;22.20;41.80;;;;;;671584;29;1504;-82
2022/02/05 00:04:45;;;;;;;;;;;22.20;41.60;;;;;;671383;29;1812;-82
2022/02/05 00:05:06;;;;;;;;;;;22.20;41.50;;;;;;671586;29;1274;-82
2022/02/05 00:05:52;;;;;;;;;;;22.20;41.50;;;;;;671756;29;1396;-83
2022/02/05 00:06:08;;;;;;;;;;;21.40;41.10;;;;;;670649;29;1250;-82
2022/02/05 00:06:34;;;;;;;;;;;22.20;41.50;;;;;;671338;29;1394;-80
2022/02/05 00:06:55;;;;;;;;;;;22.20;41.50;;;;;;671531;29;1160;-84
2022/02/05 00:07:16;;;;;;;;;;;22.10;41.40;;;;;;673254;29;1239;-83
2022/02/05 00:07:41;;;;;;;;;;;22.10;41.50;;;;;;674317;29;1281;-82
2022/02/05 00:10:01;;;;;;;;;;;22.10;41.50;;;;;;671932;29;1437;-82
2022/02/05 00:11:13;;;;;;;;;;;22.10;41.60;;;;;;671830;29;1264;-82
2022/02/05 00:12:06;;;;;;;;;;;22.10;41.50;;;;;;671892;29;1307;-83
2022/02/05 00:15:36;;;;;;;;;;;22.10;41.30;;;;;;672160;29;1228;-82
2022/02/05 00:33:02;;;;;;;;;;;22.10;41.40;;;;;;672232;29;1339;-83
2022/02/05 00:38:16;;;;;;;;;;;22.00;41.30;;;;;;675628;29;619;-83
2022/02/05 00:38:51;;;;;;;;;;;21.90;41.00;;;;;;680760;29;658;-83
2022/02/05 00:39:54;;;;;;;;;;;21.90;40.90;;;;;;680719;29;629;-82
2022/02/05 00:40:16;;;;;;;;;;;21.90;40.90;;;;;;680151;29;1113;-83
2022/02/05 00:41:55;;;;;;;;;;;24.20;42.60;;;;;;680735;29;831;-82
2022/02/05 00:42:45;;;;;;;;;;;21.90;40.80;;;;;;678076;29;859;-83
2022/02/05 00:43:10;;;;;;;;;;;21.90;40.80;;;;;;678081;29;1095;-81
2022/02/05 00:43:30;;;;;;;;;;;21.90;40.80;;;;;;678074;29;871;-82
2022/02/05 00:44:00;;;;;;;;;;;21.90;40.90;;;;;;677814;29;1246;-82
2022/02/05 00:44:23;;;;;;;;;;;21.90;40.90;;;;;;678065;29;847;-83
2022/02/05 00:44:44;;;;;;;;;;;21.90;40.80;;;;;;678045;29;1333;-83
2022/02/05 00:45:08;;;;;;;;;;;21.90;40.80;;;;;;678078;29;874;-83
2022/02/05 00:45:32;;;;;;;;;;;21.90;40.80;;;;;;677987;29;1162;-83
2022/02/05 00:45:55;;;;;;;;;;;21.90;40.80;;;;;;677914;29;1411;-82
2022/02/05 00:46:16;;;;;;;;;;;21.90;40.90;;;;;;677872;29;1205;-83
2022/02/05 00:46:39;;;;;;;;;;;21.90;40.90;;;;;;678179;29;887;-83
2022/02/05 00:47:00;;;;;;;;;;;21.90;40.90;;;;;;676549;29;967;-83
2022/02/05 00:47:21;;;;;;;;;;;21.90;40.90;;;;;;676655;29;1211;-83
2022/02/05 00:47:45;;;;;;;;;;;21.90;40.80;;;;;;675424;29;1247;-83
2022/02/05 00:48:06;;;;;;;;;;;21.90;40.70;;;;;;675502;29;906;-82
2022/02/05 00:48:27;;;;;;;;;;;21.90;41.00;;;;;;672719;29;1325;-82
2022/02/05 00:48:48;;;;;;;;;;;21.90;40.80;;;;;;672740;29;1051;-82
2022/02/05 00:49:09;;;;;;;;;;;21.90;40.80;;;;;;672909;29;859;-81
2022/02/05 00:49:30;;;;;;;;;;;21.90;40.70;;;;;;673845;29;1092;-84
2022/02/05 00:49:57;;;;;;;;;;;21.90;40.80;;;;;;674927;29;1724;-85
2022/02/05 00:50:22;;;;;;;;;;;21.90;40.80;;;;;;676186;29;1680;-85
2022/02/05 00:50:48;;;;;;;;;;;21.90;41.00;;;;;;675433;29;1763;-85
2022/02/05 00:51:14;;;;;;;;;;;21.90;40.90;;;;;;672287;29;1693;-83
2022/02/05 00:51:44;;;;;;;;;;;21.90;41.10;;;;;;673443;29;832;-80
2022/02/05 00:52:10;;;;;;;;;;;21.90;41.30;;;;;;675596;29;792;-81
2022/02/05 00:52:31;;;;;;;;;;;21.90;41.40;;;;;;675325;29;1611;-85
2022/02/05 00:53:02;;;;;;;;;;;21.90;41.40;;;;;;675717;29;530;-86
2022/02/05 00:53:33;;;;;;;;;;;21.90;41.40;;;;;;677885;29;1373;-85
2022/02/05 00:54:11;;;;;;;;;;;21.90;41.50;;;;;;678027;29;863;-85
2022/02/05 00:54:32;;;;;;;;;;;21.90;41.50;;;;;;678013;29;864;-83
2022/02/05 00:55:01;;;;;;;;;;;21.90;41.50;;;;;;677591;29;1964;-81
2022/02/05 00:55:26;;;;;;;;;;;21.90;41.50;;;;;;678089;29;868;-82
2022/02/05 00:55:53;;;;;;;;;;;21.90;41.60;;;;;;678676;29;1466;-84
2022/02/05 00:56:23;;;;;;;;;;;22.00;41.50;;;;;;683507;29;882;-83
2022/02/05 00:57:49;;;;;;;;;;;21.90;42.60;;;;;;686273;28;879;-84
2022/02/05 00:58:09;;;;;;;;;;;21.90;41.60;;;;;;686322;28;823;-84
2022/02/05 00:58:30;;;;;;;;;;;21.90;41.60;;;;;;686155;28;1362;-83
2022/02/05 00:58:50;;;;;;;;;;;21.90;41.60;;;;;;686355;28;772;-84
2022/02/05 00:59:15;;;;;;;;;;;21.90;41.60;;;;;;686349;28;930;-83
2022/02/05 00:59:36;;;;;;;;;;;21.90;41.60;;;;;;683471;29;1637;-84
2022/02/05 00:59:56;;;;;;;;;;;21.90;41.60;;;;;;680719;29;1215;-81
2022/02/05 01:00:18;;;;;;;;;;;21.90;41.60;;;;;;680721;29;796;-85
2022/02/05 01:00:39;;;;;;;;;;;21.90;41.60;;;;;;680802;29;813;-85
2022/02/05 01:00:59;;;;;;;;;;;21.90;41.60;;;;;;680707;29;777;-85
2022/02/05 01:01:20;;;;;;;;;;;21.90;41.50;;;;;;681217;29;812;-84
2022/02/05 01:01:41;;;;;;;;;;;21.90;41.60;;;;;;683740;28;1324;-84
2022/02/05 01:02:01;;;;;;;;;;;21.90;41.60;;;;;;684305;28;1335;-84
2022/02/05 01:02:23;;;;;;;;;;;21.90;41.60;;;;;;685664;28;1188;-84
2022/02/05 01:02:43;;;;;;;;;;;21.90;41.60;;;;;;688422;28;1359;-82
2022/02/05 01:03:04;;;;;;;;;;;20.20;40.70;;;;;;688413;28;1390;-80
2022/02/05 01:03:25;;;;;;;;;;;21.90;41.60;;;;;;685723;28;1492;-84
2022/02/05 01:03:45;;;;;;;;;;;21.90;41.70;;;;;;685932;28;835;-80
2022/02/05 01:04:06;;;;;;;;;;;21.90;41.70;;;;;;686591;28;836;-85
2022/02/05 01:04:26;;;;;;;;;;;21.90;41.70;;;;;;688411;28;973;-85
2022/02/05 01:04:47;;;;;;;;;;;21.90;41.80;;;;;;686033;28;875;-85
2022/02/05 01:05:08;;;;;;;;;;;21.90;41.80;;;;;;686461;28;835;-83
2022/02/05 01:05:28;;;;;;;;;;;21.90;41.70;;;;;;688757;28;942;-84
2022/02/05 01:05:49;;;;;;;;;;;21.90;41.80;;;;;;688967;28;847;-80
2022/02/05 01:06:09;;;;;;;;;;;21.90;41.70;;;;;;690818;28;855;-83
2022/02/05 01:06:30;;;;;;;;;;;21.90;41.70;;;;;;691377;28;803;-83
2022/02/05 01:06:51;;;;;;;;;;;21.90;41.60;;;;;;691265;28;1054;-83
2022/02/05 01:07:11;;;;;;;;;;;21.90;41.70;;;;;;691549;28;847;-83
2022/02/05 01:07:32;;;;;;;;;;;21.90;41.80;;;;;;691120;28;1363;-82
2022/02/05 01:07:56;;;;;;;;;;;21.90;41.70;;;;;;691146;28;935;-85
2022/02/05 01:08:17;;;;;;;;;;;21.90;41.70;;;;;;688756;28;948;-83
2022/02/05 01:08:38;;;;;;;;;;;21.90;41.80;;;;;;684219;28;1543;-84
2022/02/05 01:09:01;;;;;;;;;;;21.90;41.60;;;;;;683340;29;872;-84
2022/02/05 01:09:25;;;;;;;;;;;21.90;41.70;;;;;;683319;29;1323;-83
2022/02/05 01:09:48;;;;;;;;;;;21.90;41.70;;;;;;683154;28;1058;-83
2022/02/05 01:10:08;;;;;;;;;;;21.90;41.60;;;;;;682944;29;1376;-83
2022/02/05 01:10:29;;;;;;;;;;;21.90;41.70;;;;;;682861;29;852;-83
2022/02/05 01:10:51;;;;;;;;;;;21.90;41.80;;;;;;680509;29;1331;-83
2022/02/05 01:11:12;;;;;;;;;;;21.90;41.90;;;;;;680300;29;1260;-85
2022/02/05 01:11:33;;;;;;;;;;;21.90;41.80;;;;;;681577;29;852;-83
2022/02/05 01:11:58;;;;;;;;;;;21.90;41.90;;;;;;680067;29;1431;-83
2022/02/05 01:12:19;;;;;;;;;;;21.90;42.00;;;;;;678069;29;844;-84
2022/02/05 01:12:43;;;;;;;;;;;21.90;41.90;;;;;;679352;29;934;-82
2022/02/05 01:13:08;;;;;;;;;;;21.90;42.00;;;;;;682372;29;876;-82
2022/02/05 01:13:31;;;;;;;;;;;21.90;42.00;;;;;;683293;29;1314;-84
2022/02/05 01:13:54;;;;;;;;;;;22.00;42.10;;;;;;685555;28;847;-84
2022/02/05 01:14:19;;;;;;;;;;;22.00;42.00;;;;;;686039;28;839;-82
2022/02/05 01:14:49;;;;;;;;;;;22.00;42.00;;;;;;686142;28;539;-83
2022/02/05 01:15:10;;;;;;;;;;;22.00;42.00;;;;;;683313;29;1124;-82
2022/02/05 01:15:37;;;;;;;;;;;22.00;42.00;;;;;;683256;29;831;-83
2022/02/05 01:16:33;;;;;;;;;;;22.10;42.00;;;;;;683362;29;693;-85
2022/02/05 01:17:05;;;;;;;;;;;22.00;41.90;;;;;;683879;28;855;-81
2022/02/05 01:17:50;;;;;;;;;;;22.00;42.00;;;;;;686114;28;808;-85
2022/02/05 01:18:11;;;;;;;;;;;22.10;42.00;;;;;;685972;28;1293;-86
2022/02/05 01:18:34;;;;;;;;;;;22.10;43.00;;;;;;686097;28;843;-84
2022/02/05 01:18:55;;;;;;;;;;;22.10;42.00;;;;;;683263;29;1366;-84
2022/02/05 01:19:52;;;;;;;;;;;22.10;41.90;;;;;;680317;29;1251;-85
2022/02/05 01:21:07;;;;;;;;;;;22.10;41.80;;;;;;683494;28;700;-84
2022/02/05 01:21:57;;;;;;;;;;;22.10;41.90;;;;;;686186;28;843;-83
2022/02/05 01:22:18;;;;;;;;;;;22.10;41.80;;;;;;686217;28;867;-81
2022/02/05 01:22:41;;;;;;;;;;;22.10;41.90;;;;;;683372;28;1193;-83
2022/02/05 01:23:06;;;;;;;;;;;22.10;41.80;;;;;;683339;29;781;-84
2022/02/05 01:23:52;;;;;;;;;;;22.10;41.80;;;;;;683284;29;1369;-83
2022/02/05 01:24:12;;;;;;;;;;;22.10;41.80;;;;;;683083;29;1181;-82
2022/02/05 01:24:34;;;;;;;;;;;22.10;41.80;;;;;;685132;28;1357;-83
2022/02/05 01:24:55;;;;;;;;;;;22.10;41.80;;;;;;685839;28;1449;-82
2022/02/05 01:25:20;;;;;;;;;;;22.10;42.90;;;;;;686061;28;905;-84
2022/02/05 01:25:47;;;;;;;;;;;22.10;41.80;;;;;;686134;28;819;-84
2022/02/05 01:26:25;;;;;;;;;;;22.10;41.70;;;;;;683375;29;1611;-83
2022/02/05 01:26:54;;;;;;;;;;;22.10;41.80;;;;;;683333;29;867;-86
2022/02/05 01:27:28;;;;;;;;;;;22.10;41.70;;;;;;680534;29;1491;-86
2022/02/05 01:27:55;;;;;;;;;;;22.10;42.80;;;;;;680660;29;918;-82
2022/02/05 01:28:21;;;;;;;;;;;22.10;41.70;;;;;;683443;29;808;-83
2022/02/05 01:28:44;;;;;;;;;;;22.20;41.70;;;;;;683452;29;863;-83
2022/02/05 01:29:17;;;;;;;;;;;22.20;41.70;;;;;;684766;28;843;-83
2022/02/05 01:30:35;;;;;;;;;;;22.20;41.70;;;;;;677970;29;1328;-85
2022/02/05 01:30:57;;;;;;;;;;;22.10;41.60;;;;;;678002;29;492;-83
2022/02/05 01:31:23;;;;;;;;;;;22.10;41.60;;;;;;677982;29;871;-84
2022/02/05 01:31:49;;;;;;;;;;;22.10;41.60;;;;;;683427;28;982;-81
2022/02/05 01:32:16;;;;;;;;;;;22.20;41.70;;;;;;686337;28;883;-85
2022/02/05 01:32:40;;;;;;;;;;;22.20;41.70;;;;;;686276;28;831;-84
2022/02/05 01:34:05;;;;;;;;;;;22.10;41.60;;;;;;686223;28;831;-80
2022/02/05 01:39:37;;;;;;;;;;;22.20;41.60;;;;;;688290;28;586;-83
2022/02/05 01:50:22;;;;;;;;;;;22.10;41.90;;;;;;685859;28;1295;-84
2022/02/05 01:52:08;;;;;;;;;;;22.10;42.00;;;;;;685925;28;1083;-85
2022/02/05 01:52:45;;;;;;;;;;;22.10;42.00;;;;;;685941;28;1351;-82
2022/02/05 01:53:26;;;;;;;;;;;22.10;43.10;;;;;;685869;28;878;-82
2022/02/05 01:54:12;;;;;;;;;;;22.10;42.00;;;;;;685859;28;842;-81
2022/02/05 01:56:23;;;;;;;;;;;22.00;42.10;;;;;;685956;28;819;-85
2022/02/05 01:56:51;;;;;;;;;;;22.00;42.10;;;;;;685812;28;1261;-84
2022/02/05 01:57:43;;;;;;;;;;;22.00;43.30;;;;;;685974;28;822;-83
2022/02/05 02:04:53;;;;;;;;;;;22.00;42.30;;;;;;680529;29;582;-86
2022/02/05 02:05:14;;;;;;;;;;;21.90;42.30;;;;;;680558;29;890;-83
2022/02/05 02:05:39;;;;;;;;;;;21.90;42.40;;;;;;680512;29;756;-85
2022/02/05 02:07:11;;;;;;;;;;;21.90;42.40;;;;;;670011;29;1378;-84
2022/02/05 02:11:39;;;;;;;;;;;21.90;42.40;;;;;;675267;29;1177;-84
2022/02/05 02:12:05;;;;;;;;;;;21.90;42.50;;;;;;675403;29;824;-83
2022/02/05 02:12:36;;;;;;;;;;;21.90;42.60;;;;;;675279;29;1018;-85
2022/02/05 02:14:00;;;;;;;;;;;21.90;42.50;;;;;;675352;29;965;-85
2022/02/05 02:14:58;;;;;;;;;;;21.90;42.50;;;;;;675414;29;623;-84
2022/02/05 02:15:27;;;;;;;;;;;21.90;42.50;;;;;;675233;29;801;-85
2022/02/05 02:16:44;;;;;;;;;;;21.90;42.50;;;;;;675156;29;1224;-84
2022/02/05 02:18:48;;;;;;;;;;;21.90;42.60;;;;;;677887;29;760;-84
2022/02/05 02:19:36;;;;;;;;;;;21.90;42.60;;;;;;677806;29;1164;-85
2022/02/05 02:21:03;;;;;;;;;;;21.90;42.60;;;;;;678019;29;1791;-87
2022/02/05 02:21:55;;;;;;;;;;;21.90;42.60;;;;;;677791;29;669;-84
2022/02/05 02:22:53;;;;;;;;;;;21.80;42.50;;;;;;677855;29;1555;-85
2022/02/05 02:24:01;;;;;;;;;;;21.90;42.60;;;;;;677796;29;634;-85
2022/02/05 02:24:33;;;;;;;;;;;21.90;42.60;;;;;;677664;29;1242;-86
2022/02/05 02:25:03;;;;;;;;;;;21.90;42.70;;;;;;677864;29;891;-82
2022/02/05 02:25:49;;;;;;;;;;;21.80;42.60;;;;;;677802;29;924;-86
2022/02/05 02:26:29;;;;;;;;;;;21.90;42.60;;;;;;677828;29;1289;-84
2022/02/05 02:28:11;;;;;;;;;;;21.80;42.60;;;;;;675285;29;655;-85
2022/02/05 02:28:33;;;;;;;;;;;21.90;42.70;;;;;;671893;29;1068;-85
2022/02/05 02:29:26;;;;;;;;;;;21.80;42.60;;;;;;675298;29;892;-81
2022/02/05 02:30:20;;;;;;;;;;;21.80;42.60;;;;;;675339;29;690;-84
2022/02/05 02:30:52;;;;;;;;;;;21.80;42.70;;;;;;675490;29;912;-84
2022/02/05 02:31:18;;;;;;;;;;;21.80;42.60;;;;;;677912;29;828;-86
2022/02/05 02:31:43;;;;;;;;;;;21.80;42.70;;;;;;674259;29;1641;-83
2022/02/05 02:32:04;;;;;;;;;;;21.80;42.60;;;;;;672549;29;1132;-83
2022/02/05 02:32:25;;;;;;;;;;;21.80;43.80;;;;;;672527;29;1680;-85
2022/02/05 02:32:51;;;;;;;;;;;21.80;42.70;;;;;;672564;29;879;-83
2022/02/05 02:33:21;;;;;;;;;;;21.80;42.70;;;;;;672633;29;868;-83
2022/02/05 02:33:46;;;;;;;;;;;21.80;42.80;;;;;;674891;29;1536;-81
2022/02/05 02:34:11;;;;;;;;;;;21.80;42.80;;;;;;675315;29;808;-81
2022/02/05 02:34:37;;;;;;;;;;;21.80;42.80;;;;;;675238;29;796;-82
2022/02/05 02:35:05;;;;;;;;;;;21.80;42.90;;;;;;675044;29;1949;-84
2022/02/05 02:35:28;;;;;;;;;;;21.80;42.80;;;;;;675223;29;899;-85
2022/02/05 02:35:49;;;;;;;;;;;21.80;42.80;;;;;;675152;29;1442;-85
2022/02/05 02:37:11;;;;;;;;;;;21.80;42.70;;;;;;672563;29;900;-86
2022/02/05 02:37:38;;;;;;;;;;;21.80;42.80;;;;;;672629;29;1063;-87
2022/02/05 02:38:08;;;;;;;;;;;21.80;42.80;;;;;;670116;29;926;-83
2022/02/05 02:38:44;;;;;;;;;;;21.80;42.80;;;;;;670079;29;1467;-84
2022/02/05 02:39:11;;;;;;;;;;;21.80;42.70;;;;;;672574;29;1144;-84
2022/02/05 02:39:41;;;;;;;;;;;21.80;42.70;;;;;;670534;29;1715;-83
2022/02/05 02:40:34;;;;;;;;;;;21.80;42.50;;;;;;672615;29;671;-83
2022/02/05 02:41:06;;;;;;;;;;;21.80;42.20;;;;;;672596;29;848;-82
2022/02/05 02:41:33;;;;;;;;;;;21.80;42.20;;;;;;673715;29;1555;-83
2022/02/05 02:42:04;;;;;;;;;;;21.80;42.20;;;;;;675218;29;879;-82
2022/02/05 02:42:26;;;;;;;;;;;21.80;42.20;;;;;;675120;29;1320;-84
2022/02/05 02:42:50;;;;;;;;;;;21.80;42.10;;;;;;672556;29;1330;-83
2022/02/05 02:43:17;;;;;;;;;;;21.80;42.10;;;;;;672528;29;911;-83
2022/02/05 02:43:38;;;;;;;;;;;21.80;42.10;;;;;;672671;29;1043;-82
2022/02/05 02:43:58;;;;;;;;;;;21.80;42.10;;;;;;672586;29;796;-82
2022/02/05 02:44:19;;;;;;;;;;;21.80;42.00;;;;;;672546;29;859;-81
2022/02/05 02:44:39;;;;;;;;;;;21.80;42.10;;;;;;672706;29;832;-84
2022/02/05 02:45:00;;;;;;;;;;;21.80;42.00;;;;;;673620;29;880;-82
2022/02/05 02:45:21;;;;;;;;;;;21.70;41.80;;;;;;674438;29;1472;-84
2022/02/05 02:45:44;;;;;;;;;;;21.80;41.80;;;;;;675258;29;883;-85
2022/02/05 02:46:05;;;;;;;;;;;21.70;41.80;;;;;;673036;29;1913;-84
2022/02/05 02:46:25;;;;;;;;;;;21.80;41.90;;;;;;672573;29;1023;-82
2022/02/05 02:46:46;;;;;;;;;;;21.70;41.90;;;;;;672494;29;864;-83
2022/02/05 02:47:07;;;;;;;;;;;21.70;41.80;;;;;;672650;29;856;-83
2022/02/05 02:47:27;;;;;;;;;;;21.70;41.90;;;;;;672612;29;868;-85
2022/02/05 02:47:48;;;;;;;;;;;21.80;43.10;;;;;;673393;29;1147;-83
2022/02/05 02:48:09;;;;;;;;;;;21.70;42.00;;;;;;679251;29;1711;-82
2022/02/05 02:48:29;;;;;;;;;;;21.70;42.00;;;;;;680301;29;1142;-83
2022/02/05 02:48:50;;;;;;;;;;;21.70;41.90;;;;;;680345;29;814;-83
2022/02/05 02:49:16;;;;;;;;;;;21.70;41.90;;;;;;680407;29;843;-83
2022/02/05 02:50:03;;;;;;;;;;;21.70;42.00;;;;;;680373;29;704;-83
2022/02/05 02:50:33;;;;;;;;;;;21.70;42.00;;;;;;677664;29;1368;-84
2022/02/05 02:57:32;;;;;;;;;;;21.80;47.80;;;;;;677850;29;674;-85
2022/02/05 02:57:59;;;;;;;;;;;21.80;47.60;;;;;;677808;29;852;-85
2022/02/05 02:58:24;;;;;;;;;;;21.80;47.80;;;;;;677880;29;883;-87
2022/02/05 02:58:44;;;;;;;;;;;21.80;47.70;;;;;;677829;29;1242;-85
2022/02/05 02:59:10;;;;;;;;;;;21.80;47.50;;;;;;679477;29;1506;-86
2022/02/05 02:59:47;;;;;;;;;;;21.80;47.50;;;;;;677672;29;1226;-87
2022/02/05 03:00:11;;;;;;;;;;;21.80;47.50;;;;;;677539;29;1680;-86
2022/02/05 03:00:32;;;;;;;;;;;21.80;47.20;;;;;;677694;29;883;-86
2022/02/05 03:00:58;;;;;;;;;;;21.70;47.00;;;;;;675112;29;1000;-86
2022/02/05 03:01:20;;;;;;;;;;;21.80;47.20;;;;;;674669;29;1779;-86
2022/02/05 03:01:42;;;;;;;;;;;21.80;46.60;;;;;;675132;29;1194;-87
2022/02/05 03:02:12;;;;;;;;;;;21.70;46.50;;;;;;674401;29;1281;-86
2022/02/05 03:02:32;;;;;;;;;;;21.80;46.30;;;;;;672476;29;1331;-86
2022/02/05 03:02:54;;;;;;;;;;;21.80;47.60;;;;;;674901;29;1239;-86
2022/02/05 03:03:14;;;;;;;;;;;21.70;46.00;;;;;;674651;29;1493;-81
2022/02/05 03:03:35;;;;;;;;;;;21.80;46.20;;;;;;672517;29;1385;-86
2022/02/05 03:03:55;;;;;;;;;;;21.80;46.00;;;;;;672557;29;958;-86
2022/02/05 03:04:16;;;;;;;;;;;21.80;45.80;;;;;;672545;29;864;-87
2022/02/05 03:04:36;;;;;;;;;;;21.80;45.90;;;;;;673085;29;1035;-87
2022/02/05 03:04:57;;;;;;;;;;;21.80;45.70;;;;;;675415;29;871;-86
2022/02/05 03:05:18;;;;;;;;;;;21.80;45.70;;;;;;675258;29;1404;-84
2022/02/05 03:05:38;;;;;;;;;;;21.70;45.40;;;;;;675227;29;1238;-87
2022/02/05 03:05:59;;;;;;;;;;;21.80;45.40;;;;;;675195;29;1215;-85
2022/02/05 03:06:21;;;;;;;;;;;21.80;45.50;;;;;;675131;29;1010;-82
2022/02/05 03:06:42;;;;;;;;;;;21.80;45.50;;;;;;675053;29;1242;-86
2022/02/05 03:07:03;;;;;;;;;;;21.80;45.10;;;;;;675732;29;1237;-84
2022/02/05 03:07:24;;;;;;;;;;;21.80;45.10;;;;;;674917;29;1449;-86
2022/02/05 03:07:45;;;;;;;;;;;21.80;44.90;;;;;;675793;29;1436;-79
2022/02/05 03:08:06;;;;;;;;;;;21.80;44.90;;;;;;677827;29;1422;-87
2022/02/05 03:08:26;;;;;;;;;;;21.80;45.00;;;;;;677331;29;1321;-88
2022/02/05 03:08:49;;;;;;;;;;;21.80;45.00;;;;;;672814;29;1192;-88
2022/02/05 03:09:09;;;;;;;;;;;21.90;44.90;;;;;;672718;29;1266;-87
2022/02/05 03:09:30;;;;;;;;;;;21.90;44.90;;;;;;672499;29;1318;-86
2022/02/05 03:09:52;;;;;;;;;;;21.90;44.90;;;;;;672475;29;1331;-87
2022/02/05 03:10:13;;;;;;;;;;;21.90;44.80;;;;;;672528;29;1220;-87
2022/02/05 03:10:34;;;;;;;;;;;21.90;44.80;;;;;;673332;29;1377;-83
2022/02/05 03:10:54;;;;;;;;;;;21.90;44.70;;;;;;675161;29;1532;-88
2022/02/05 03:11:19;;;;;;;;;;;21.90;44.70;;;;;;672718;29;1278;-87
2022/02/05 03:11:39;;;;;;;;;;;21.90;44.60;;;;;;671538;29;1238;-90
2022/02/05 03:12:00;;;;;;;;;;;21.90;44.60;;;;;;670098;29;983;-88
2022/02/05 03:12:21;;;;;;;;;;;21.90;44.60;;;;;;670037;29;1215;-88
2022/02/05 03:12:43;;;;;;;;;;;21.90;44.60;;;;;;671028;29;1287;-86
2022/02/05 03:13:03;;;;;;;;;;;21.90;44.50;;;;;;673625;29;828;-85
2022/02/05 03:13:24;;;;;;;;;;;21.90;44.50;;;;;;675267;29;824;-87
2022/02/05 03:13:45;;;;;;;;;;;21.90;44.60;;;;;;675286;29;813;-88
2022/02/05 03:14:06;;;;;;;;;;;21.90;44.50;;;;;;675313;29;912;-88
2022/02/05 03:14:28;;;;;;;;;;;21.90;45.00;;;;;;678465;28;1257;-87
2022/02/05 03:14:49;;;;;;;;;;;21.90;45.80;;;;;;685980;28;835;-88
2022/02/05 03:15:18;;;;;;;;;;;21.90;44.50;;;;;;685931;28;1910;-87
2022/02/05 03:15:40;;;;;;;;;;;23.20;45.00;;;;;;685991;28;894;-86
2022/02/05 03:16:00;;;;;;;;;;;21.90;44.30;;;;;;685555;28;1643;-84
2022/02/05 03:16:23;;;;;;;;;;;22.00;44.50;;;;;;685693;28;1813;-86
2022/02/05 03:16:49;;;;;;;;;;;21.90;44.20;;;;;;686934;28;1721;-84
2022/02/05 03:17:24;;;;;;;;;;;21.90;44.20;;;;;;687543;28;1705;-86
2022/02/05 03:18:03;;;;;;;;;;;22.00;44.20;;;;;;685803;28;1717;-86
2022/02/05 03:18:44;;;;;;;;;;;22.00;44.10;;;;;;685621;28;1237;-86
2022/02/05 03:19:12;;;;;;;;;;;22.00;44.20;;;;;;685901;28;898;-86
2022/02/05 03:19:34;;;;;;;;;;;21.90;44.10;;;;;;684521;28;1524;-86
2022/02/05 03:19:56;;;;;;;;;;;21.90;44.20;;;;;;685803;28;788;-84
2022/02/05 03:20:17;;;;;;;;;;;21.90;44.10;;;;;;685579;28;1550;-84
2022/02/05 03:20:37;;;;;;;;;;;21.90;44.10;;;;;;685603;28;1244;-85
2022/02/05 03:20:58;;;;;;;;;;;21.90;44.20;;;;;;685765;28;807;-83
2022/02/05 03:21:18;;;;;;;;;;;21.90;44.30;;;;;;685743;28;811;-85
2022/02/05 03:21:39;;;;;;;;;;;21.90;44.20;;;;;;683267;28;1755;-85
2022/02/05 03:21:59;;;;;;;;;;;21.90;44.20;;;;;;685719;28;792;-85
2022/02/05 03:22:21;;;;;;;;;;;21.90;44.20;;;;;;683448;28;1835;-86
2022/02/05 03:22:41;;;;;;;;;;;21.90;44.10;;;;;;685760;28;895;-85
2022/02/05 03:23:03;;;;;;;;;;;21.90;44.20;;;;;;685721;28;854;-86
2022/02/05 03:23:23;;;;;;;;;;;21.90;44.10;;;;;;683481;28;899;-85
2022/02/05 03:23:44;;;;;;;;;;;21.10;44.90;;;;;;685782;28;902;-84
2022/02/05 03:24:04;;;;;;;;;;;23.60;45.20;;;;;;683116;29;811;-85
2022/02/05 03:24:25;;;;;;;;;;;21.90;44.10;;;;;;682994;28;1392;-85
2022/02/05 03:24:46;;;;;;;;;;;21.90;44.60;;;;;;683026;29;815;-86
2022/02/05 03:25:07;;;;;;;;;;;21.90;44.20;;;;;;680898;29;1316;-86
2022/02/05 03:25:31;;;;;;;;;;;21.90;44.30;;;;;;683030;28;835;-84
2022/02/05 03:25:52;;;;;;;;;;;21.90;44.10;;;;;;681082;29;1264;-87
2022/02/05 03:26:12;;;;;;;;;;;21.90;44.10;;;;;;683103;28;1304;-84
2022/02/05 03:26:35;;;;;;;;;;;21.90;44.20;;;;;;682607;29;1043;-85
2022/02/05 03:26:56;;;;;;;;;;;21.90;44.10;;;;;;684238;28;914;-86
2022/02/05 03:27:17;;;;;;;;;;;21.90;44.30;;;;;;683086;29;1319;-88
2022/02/05 03:27:38;;;;;;;;;;;22.00;44.50;;;;;;682843;29;1648;-89
2022/02/05 03:27:59;;;;;;;;;;;21.90;44.80;;;;;;683133;29;1681;-87
2022/02/05 03:28:20;;;;;;;;;;;22.00;45.00;;;;;;684003;28;520;-89
2022/02/05 03:28:41;;;;;;;;;;;22.00;45.90;;;;;;685933;28;847;-88
2022/02/05 03:29:04;;;;;;;;;;;22.00;44.80;;;;;;685872;28;828;-88
2022/02/05 03:29:25;;;;;;;;;;;22.00;45.00;;;;;;683126;29;836;-89
2022/02/05 03:29:49;;;;;;;;;;;22.00;45.10;;;;;;684956;28;1404;-87
2022/02/05 03:30:10;;;;;;;;;;;22.00;44.90;;;;;;685909;28;839;-90
2022/02/05 03:30:31;;;;;;;;;;;22.10;44.90;;;;;;685853;28;796;-89
2022/02/05 03:30:52;;;;;;;;;;;22.00;45.10;;;;;;685882;28;910;-90
2022/02/05 03:31:12;;;;;;;;;;;22.00;44.80;;;;;;685781;28;1230;-89
2022/02/05 03:31:34;;;;;;;;;;;22.10;44.90;;;;;;685792;28;832;-89
2022/02/05 03:31:55;;;;;;;;;;;22.10;44.80;;;;;;685718;28;1399;-90
2022/02/05 03:32:20;;;;;;;;;;;22.10;44.70;;;;;;685787;28;819;-87
2022/02/05 03:32:40;;;;;;;;;;;22.10;44.60;;;;;;685838;28;879;-88
2022/02/05 03:33:01;;;;;;;;;;;22.10;44.50;;;;;;685631;28;823;-87
2022/02/05 03:33:22;;;;;;;;;;;22.10;44.50;;;;;;685726;28;515;-87
2022/02/05 03:33:42;;;;;;;;;;;22.10;44.50;;;;;;685797;28;839;-88
2022/02/05 03:34:03;;;;;;;;;;;22.10;44.50;;;;;;685872;28;923;-86
2022/02/05 03:34:24;;;;;;;;;;;22.10;44.40;;;;;;685944;28;847;-83
2022/02/05 03:34:45;;;;;;;;;;;22.10;44.30;;;;;;685951;28;807;-84
2022/02/05 03:35:05;;;;;;;;;;;22.10;44.30;;;;;;685693;28;1899;-87
2022/02/05 03:35:26;;;;;;;;;;;22.10;44.40;;;;;;685840;28;902;-87
2022/02/05 03:35:47;;;;;;;;;;;22.10;44.30;;;;;;685801;28;859;-87
2022/02/05 03:36:07;;;;;;;;;;;22.10;44.40;;;;;;685776;28;1421;-85
2022/02/05 03:36:28;;;;;;;;;;;22.10;44.30;;;;;;685779;28;887;-89
2022/02/05 03:36:48;;;;;;;;;;;22.10;44.30;;;;;;685677;28;1073;-87
2022/02/05 03:37:09;;;;;;;;;;;22.10;44.30;;;;;;685997;28;927;-90
2022/02/05 03:37:30;;;;;;;;;;;22.00;44.30;;;;;;685719;28;1101;-88
2022/02/05 03:37:50;;;;;;;;;;;22.10;44.40;;;;;;685754;28;851;-89
2022/02/05 03:38:11;;;;;;;;;;;22.10;44.30;;;;;;685793;28;961;-84
2022/02/05 03:38:32;;;;;;;;;;;22.10;44.30;;;;;;685904;28;824;-88
2022/02/05 03:38:52;;;;;;;;;;;22.00;44.20;;;;;;685839;28;891;-89
2022/02/05 03:39:13;;;;;;;;;;;22.00;44.20;;;;;;685917;28;871;-88
2022/02/05 03:39:33;;;;;;;;;;;22.00;44.20;;;;;;685725;28;938;-88
2022/02/05 03:39:54;;;;;;;;;;;22.00;44.20;;;;;;685850;28;862;-87
2022/02/05 03:40:15;;;;;;;;;;;22.00;44.20;;;;;;686027;28;791;-86
2022/02/05 03:40:35;;;;;;;;;;;22.00;44.20;;;;;;686020;28;787;-86
2022/02/05 03:40:56;;;;;;;;;;;22.00;44.20;;;;;;685282;28;1231;-86
2022/02/05 03:41:16;;;;;;;;;;;22.00;44.20;;;;;;685746;28;891;-87
2022/02/05 03:41:37;;;;;;;;;;;22.00;44.20;;;;;;685873;28;941;-88
2022/02/05 03:41:57;;;;;;;;;;;22.00;44.20;;;;;;682954;29;1250;-87
2022/02/05 03:42:18;;;;;;;;;;;22.00;44.20;;;;;;683097;29;847;-85
2022/02/05 03:42:38;;;;;;;;;;;22.00;44.10;;;;;;683219;29;883;-87
2022/02/05 03:42:59;;;;;;;;;;;22.00;44.20;;;;;;683050;29;835;-88
2022/02/05 03:43:20;;;;;;;;;;;22.00;44.10;;;;;;683158;29;811;-86
2022/02/05 03:43:40;;;;;;;;;;;21.90;44.10;;;;;;683389;28;855;-90
2022/02/05 03:44:01;;;;;;;;;;;22.00;44.20;;;;;;685679;28;1550;-89
2022/02/05 03:44:22;;;;;;;;;;;22.00;44.20;;;;;;685780;28;827;-88
2022/02/05 03:44:42;;;;;;;;;;;21.90;44.20;;;;;;685823;28;818;-90
2022/02/05 03:45:04;;;;;;;;;;;21.90;44.10;;;;;;685688;28;903;-90
2022/02/05 03:45:24;;;;;;;;;;;21.90;44.10;;;;;;685576;28;1351;-89
2022/02/05 03:45:45;;;;;;;;;;;21.90;44.30;;;;;;685785;28;803;-89
2022/02/05 03:46:06;;;;;;;;;;;21.90;45.30;;;;;;685868;28;990;-88
2022/02/05 03:46:26;;;;;;;;;;;21.90;44.10;;;;;;685707;28;784;-88
2022/02/05 03:46:50;;;;;;;;;;;21.90;44.30;;;;;;685879;28;818;-89
2022/02/05 03:47:11;;;;;;;;;;;21.90;44.20;;;;;;685670;28;1269;-91
2022/02/05 03:47:33;;;;;;;;;;;21.90;44.20;;;;;;685789;28;866;-89
2022/02/05 03:47:54;;;;;;;;;;;21.90;44.20;;;;;;685844;28;803;-87
2022/02/05 03:48:14;;;;;;;;;;;21.90;44.10;;;;;;685739;28;887;-86